CheckWX is a tool to help pilots better visualize weather data.  It is not intended as a substitute for an official pre-flight weather briefing.

13:46:36 UTC

KOUN TAF
University of Oklahoma Westheimer Airport
Norman, Oklahoma, USA
KOUN 271120Z 2712/2812 19006KT P6SM SCT150 FM271500 20013G20KT P6SM SKC FM272000 24014G21KT P6SM FEW080 SCT250 FM280100 34011KT P6SM SCT080

Feb-27@
12:00 UTC

Feb-27 @ 12:00 UTC

Feb-27@
15:00 UTC

Feb-27 @ 15:00 UTC

KOUN 271120Z 2712/2812 19006KT P6SM SCT150
Wind
  • 190° at 6 KTS
Cloud Levels
  • Scattered at 15,000' AGL

Feb-27@
15:00 UTC

Feb-27 @ 15:00 UTC

Feb-27@
20:00 UTC

Feb-27 @ 20:00 UTC

FM271500 20013G20KT P6SM SKC

From

From Standard forecast or significant change

Wind
  • 200° at 13 KTS
  • {Gusting to 20 KTS
Cloud Levels
  • Clear skies

Feb-27@
20:00 UTC

Feb-27 @ 20:00 UTC

Feb-28@
01:00 UTC

Feb-28 @ 01:00 UTC

FM272000 24014G21KT P6SM FEW080 SCT250

From

From Standard forecast or significant change

Wind
  • 240° at 14 KTS
  • {Gusting to 21 KTS
Cloud Levels
  • Few at 8,000' AGL
  • Scattered at 25,000' AGL

Feb-28@
01:00 UTC

Feb-28 @ 01:00 UTC

Feb-28@
12:00 UTC

Feb-28 @ 12:00 UTC

FM280100 34011KT P6SM SCT080

From

From Standard forecast or significant change

Wind
  • 340° at 11 KTS
Cloud Levels
  • Scattered at 8,000' AGL